Time;durP1;ratioP1;P1;durP2;ratioP2;P2;SDS_P1;SDS_P2;PMS_P1;PMS_P2;Temp;Humidity;BMP_temperature;BMP_pressure;BME280_temperature;BME280_humidity;BME280_pressure;Samples;Min_cycle;Max_cycle;Signal;HPM_P1;HPM_P2
2023/12/18 00:00:16;;;;;;;939.00;869.90;;;8.10;99.90;;;;;;5005822;28;20056;-77
2023/12/18 00:02:41;;;;;;;948.23;868.13;;;8.10;99.90;;;;;;5009832;28;20034;-76
2023/12/18 00:05:08;;;;;;;894.93;834.87;;;8.10;99.90;;;;;;5010244;28;20324;-77
2023/12/18 00:07:33;;;;;;;1022.40;930.97;;;8.10;99.90;;;;;;5009389;28;20049;-76
2023/12/18 00:09:59;;;;;;;1111.23;993.93;;;8.10;99.90;;;;;;5012810;28;20805;-77
2023/12/18 00:12:25;;;;;;;1046.93;946.77;;;8.10;99.90;;;;;;5015325;28;20050;-76
2023/12/18 00:14:52;;;;;;;1256.77;998.20;;;8.10;99.90;;;;;;4993967;28;20037;-76
2023/12/18 00:17:17;;;;;;;1041.10;939.40;;;8.20;99.90;;;;;;4997326;28;20064;-76
2023/12/18 00:19:43;;;;;;;1109.47;953.27;;;8.10;99.90;;;;;;4994393;28;20045;-76
2023/12/18 00:22:09;;;;;;;1036.63;929.23;;;8.20;99.90;;;;;;4994311;28;20032;-76
2023/12/18 00:24:34;;;;;;;1011.80;924.07;;;8.20;99.90;;;;;;5010754;28;20050;-76
2023/12/18 00:27:00;;;;;;;1008.77;920.53;;;8.20;99.90;;;;;;4993871;28;20413;-76
2023/12/18 00:29:26;;;;;;;1045.47;943.00;;;8.20;99.90;;;;;;5009861;28;20045;-76
2023/12/18 00:31:52;;;;;;;1009.23;914.63;;;8.20;99.90;;;;;;4994198;28;20042;-75
2023/12/18 00:34:17;;;;;;;966.37;891.47;;;8.20;99.90;;;;;;5010451;28;20084;-76
2023/12/18 00:36:43;;;;;;;896.17;829.40;;;8.20;99.90;;;;;;5016937;28;20378;-75
2023/12/18 00:39:09;;;;;;;945.30;871.17;;;8.20;99.90;;;;;;4993165;28;20136;-75
2023/12/18 00:41:34;;;;;;;983.00;899.43;;;8.20;99.90;;;;;;4997246;28;20077;-76
2023/12/18 00:44:00;;;;;;;1025.37;915.20;;;8.20;99.90;;;;;;5019948;28;20038;-76
2023/12/18 00:46:26;;;;;;;1065.07;966.70;;;8.20;99.90;;;;;;5014394;28;20044;-76
2023/12/18 00:48:52;;;;;;;1066.50;968.53;;;8.20;99.90;;;;;;5015462;28;20050;-75
2023/12/18 00:51:18;;;;;;;1023.63;935.20;;;8.20;99.90;;;;;;5009388;28;20042;-76
2023/12/18 00:53:43;;;;;;;987.87;904.43;;;8.20;99.90;;;;;;5009780;28;20144;-77
2023/12/18 00:56:09;;;;;;;1047.40;953.37;;;8.20;99.90;;;;;;5011273;28;20041;-75
2023/12/18 00:58:35;;;;;;;1214.60;983.70;;;8.20;99.90;;;;;;5010456;28;20148;-76
2023/12/18 01:01:01;;;;;;;1005.77;912.40;;;8.20;99.90;;;;;;5008437;28;20030;-75
2023/12/18 01:03:28;;;;;;;995.73;905.57;;;8.20;99.90;;;;;;4993883;28;20045;-75
2023/12/18 01:05:53;;;;;;;1029.05;919.05;;;8.20;99.90;;;;;;5010103;28;20510;-75
2023/12/18 01:08:19;;;;;;;1000.23;900.80;;;8.20;99.90;;;;;;4993402;28;20053;-75
2023/12/18 01:10:45;;;;;;;991.40;896.13;;;8.20;99.90;;;;;;4993306;28;20046;-75
2023/12/18 01:13:10;;;;;;;1019.17;931.90;;;8.20;99.90;;;;;;4993637;28;20514;-74
2023/12/18 01:15:36;;;;;;;991.60;914.67;;;8.10;99.90;;;;;;5015174;28;20112;-75
2023/12/18 01:18:02;;;;;;;999.97;915.47;;;8.10;99.90;;;;;;4993508;28;20033;-76
2023/12/18 01:20:28;;;;;;;965.00;887.73;;;8.10;99.90;;;;;;5009307;28;20038;-75
2023/12/18 01:22:54;;;;;;;1003.95;923.13;;;8.10;99.90;;;;;;4994441;28;20101;-75
2023/12/18 01:25:19;;;;;;;1010.33;924.43;;;8.10;99.90;;;;;;5014616;28;20045;-75
2023/12/18 01:27:45;;;;;;;1014.97;919.90;;;8.10;99.90;;;;;;5013376;28;20584;-75
2023/12/18 01:30:11;;;;;;;1004.03;914.97;;;8.20;99.90;;;;;;5012872;28;20124;-76
2023/12/18 01:32:37;;;;;;;973.65;899.20;;;8.10;99.90;;;;;;4996910;28;20065;-76
2023/12/18 01:35:03;;;;;;;974.67;895.23;;;8.10;99.90;;;;;;4994508;28;20112;-77
2023/12/18 01:37:29;;;;;;;1032.20;936.10;;;8.10;99.90;;;;;;5013577;28;20045;-77
2023/12/18 01:39:54;;;;;;;1561.53;999.90;;;8.10;99.90;;;;;;4996446;28;20060;-76
2023/12/18 01:42:20;;;;;;;948.03;874.63;;;8.10;99.90;;;;;;5017826;28;20037;-77
2023/12/18 01:44:48;;;;;;;1320.73;973.47;;;8.10;99.90;;;;;;5012771;28;20042;-76
2023/12/18 01:47:15;;;;;;;997.40;908.70;;;8.10;99.90;;;;;;5013584;28;20401;-76
2023/12/18 01:49:41;;;;;;;1018.47;930.35;;;8.10;99.90;;;;;;5013131;28;20285;-76
2023/12/18 01:52:07;;;;;;;971.50;888.57;;;8.10;99.90;;;;;;5010214;28;20069;-77
2023/12/18 01:54:34;;;;;;;1012.30;926.53;;;8.10;99.90;;;;;;4996225;28;20284;-76
2023/12/18 01:57:02;;;;;;;966.50;889.67;;;8.10;99.90;;;;;;5013728;28;20354;-77
2023/12/18 01:59:29;;;;;;;915.45;848.95;;;8.20;99.90;;;;;;4996482;28;20368;-76
2023/12/18 02:01:55;;;;;;;1019.78;924.95;;;8.20;99.90;;;;;;4990825;28;20038;-77
2023/12/18 02:04:22;;;;;;;980.47;901.20;;;8.20;99.90;;;;;;4997399;28;20406;-76
2023/12/18 02:06:48;;;;;;;946.03;875.00;;;8.20;99.90;;;;;;4994473;28;20089;-76
2023/12/18 02:09:15;;;;;;;1245.13;940.37;;;8.20;99.90;;;;;;5013274;28;20455;-76
2023/12/18 02:11:44;;;;;;;973.33;894.07;;;8.20;99.90;;;;;;5020469;28;20754;-76
2023/12/18 02:14:10;;;;;;;1067.13;955.83;;;8.20;99.90;;;;;;4998301;28;20643;-76
2023/12/18 02:16:36;;;;;;;997.30;916.38;;;8.20;99.90;;;;;;5011725;28;20557;-76
2023/12/18 02:19:02;;;;;;;924.80;858.87;;;8.20;99.90;;;;;;5002974;28;20080;-76
2023/12/18 02:21:27;;;;;;;1042.33;930.80;;;8.20;99.90;;;;;;5011800;28;20080;-76
2023/12/18 02:23:53;;;;;;;1008.47;926.33;;;8.20;99.90;;;;;;4996644;28;20042;-76
2023/12/18 02:26:19;;;;;;;973.83;898.30;;;8.20;99.90;;;;;;5011948;28;20065;-76
2023/12/18 02:28:45;;;;;;;947.67;877.88;;;8.10;99.90;;;;;;5021427;28;20506;-76
2023/12/18 02:31:13;;;;;;;1196.55;955.13;;;8.20;99.90;;;;;;5019894;28;20037;-76
2023/12/18 02:33:40;;;;;;;988.47;911.50;;;8.20;99.90;;;;;;5018494;28;20499;-76
2023/12/18 02:36:07;;;;;;;966.40;892.38;;;8.20;99.90;;;;;;5014628;28;20307;-76
2023/12/18 02:38:32;;;;;;;1007.05;922.80;;;8.20;99.90;;;;;;5011739;28;20092;-76
2023/12/18 02:40:58;;;;;;;994.93;915.43;;;8.20;99.90;;;;;;4988455;28;20038;-76
2023/12/18 02:43:24;;;;;;;968.60;890.00;;;8.20;99.90;;;;;;4996376;28;20402;-76
2023/12/18 02:45:49;;;;;;;1170.20;947.47;;;8.20;99.90;;;;;;5011898;28;20042;-77
2023/12/18 02:48:15;;;;;;;989.00;913.40;;;8.20;99.90;;;;;;5011896;28;20099;-75
2023/12/18 02:50:41;;;;;;;969.77;892.93;;;8.20;99.90;;;;;;4996364;28;20053;-76
2023/12/18 02:53:06;;;;;;;1060.53;955.30;;;8.20;99.90;;;;;;5012087;28;20390;-77
2023/12/18 02:55:32;;;;;;;985.83;901.03;;;8.20;99.90;;;;;;4994713;28;20418;-77
2023/12/18 02:57:58;;;;;;;946.17;875.90;;;8.20;99.90;;;;;;5011089;28;20184;-77
2023/12/18 03:00:24;;;;;;;986.67;900.23;;;8.20;99.90;;;;;;5010958;28;20068;-76
2023/12/18 03:02:50;;;;;;;952.83;881.67;;;8.20;99.90;;;;;;5012468;28;20168;-76
2023/12/18 03:05:15;;;;;;;978.20;903.93;;;8.20;99.90;;;;;;4999616;28;20136;-76
2023/12/18 03:07:41;;;;;;;981.80;905.57;;;8.20;99.90;;;;;;5011318;28;20296;-76
2023/12/18 03:10:07;;;;;;;946.57;876.33;;;8.20;99.90;;;;;;5011654;28;20069;-76
2023/12/18 03:12:33;;;;;;;937.93;868.77;;;8.20;99.90;;;;;;4995585;28;20410;-76
2023/12/18 03:14:58;;;;;;;938.03;869.17;;;8.20;99.90;;;;;;4995540;28;20139;-76
2023/12/18 03:17:24;;;;;;;949.00;874.53;;;8.10;99.90;;;;;;4994888;28;20030;-76
2023/12/18 03:19:50;;;;;;;1000.60;916.73;;;8.20;99.90;;;;;;5010807;28;20061;-76
2023/12/18 03:22:16;;;;;;;925.43;855.57;;;8.20;99.90;;;;;;4995668;28;20037;-76
2023/12/18 03:24:42;;;;;;;935.30;867.87;;;8.20;99.90;;;;;;5012133;28;20034;-76
2023/12/18 03:27:09;;;;;;;952.03;879.53;;;8.20;99.90;;;;;;4996281;28;20050;-76
2023/12/18 03:29:34;;;;;;;996.10;918.25;;;8.20;99.90;;;;;;5011171;28;20281;-76
2023/12/18 03:32:00;;;;;;;981.97;905.33;;;8.10;99.90;;;;;;5010832;28;20052;-76
2023/12/18 03:34:26;;;;;;;999.50;917.77;;;8.10;99.90;;;;;;5011525;28;20061;-76
2023/12/18 03:36:52;;;;;;;989.60;906.60;;;8.10;99.90;;;;;;5011673;28;20152;-75
2023/12/18 03:39:18;;;;;;;969.53;894.33;;;8.10;99.90;;;;;;4995273;28;20084;-76
2023/12/18 03:41:43;;;;;;;975.23;897.17;;;8.10;99.90;;;;;;5015112;28;20104;-76
2023/12/18 03:44:09;;;;;;;1051.20;949.23;;;8.10;99.90;;;;;;4995135;28;20128;-76
2023/12/18 03:46:35;;;;;;;1018.10;932.37;;;8.10;99.90;;;;;;4994832;28;20042;-76
2023/12/18 03:49:00;;;;;;;976.40;898.93;;;8.10;99.90;;;;;;5011323;28;20092;-77
2023/12/18 03:51:26;;;;;;;963.50;890.83;;;8.10;99.90;;;;;;4996765;28;20053;-77
2023/12/18 03:53:52;;;;;;;975.63;899.73;;;8.10;99.90;;;;;;5011295;28;20045;-77
2023/12/18 03:56:17;;;;;;;985.37;908.80;;;8.10;99.90;;;;;;5011640;28;20096;-77
2023/12/18 03:58:43;;;;;;;991.73;913.77;;;8.10;99.90;;;;;;5010754;28;20081;-77
2023/12/18 04:01:09;;;;;;;1026.87;927.93;;;8.10;99.90;;;;;;5010152;28;20037;-77
2023/12/18 04:03:34;;;;;;;977.93;902.50;;;8.10;99.90;;;;;;5010296;28;20430;-77
2023/12/18 04:06:01;;;;;;;976.53;895.07;;;8.10;99.90;;;;;;5010989;28;20115;-76
2023/12/18 04:08:27;;;;;;;976.83;900.20;;;8.10;99.90;;;;;;4994500;28;20042;-77
2023/12/18 04:10:52;;;;;;;975.03;894.27;;;8.10;99.90;;;;;;4994740;28;20491;-76
2023/12/18 04:13:18;;;;;;;936.27;866.93;;;8.10;99.90;;;;;;5010921;28;20042;-76
2023/12/18 04:15:44;;;;;;;984.47;908.23;;;8.10;99.90;;;;;;5014504;28;20428;-76
2023/12/18 04:18:10;;;;;;;976.93;903.23;;;8.10;99.90;;;;;;4991772;28;20042;-76
2023/12/18 04:20:35;;;;;;;981.63;905.83;;;8.10;99.90;;;;;;5010385;28;20167;-76
2023/12/18 04:23:01;;;;;;;1000.67;920.43;;;8.10;99.90;;;;;;5016021;28;20397;-76
2023/12/18 04:25:27;;;;;;;1034.87;944.47;;;8.10;99.90;;;;;;5009503;28;20063;-76
2023/12/18 04:27:52;;;;;;;1005.23;918.03;;;8.10;99.90;;;;;;5020567;28;20044;-76
2023/12/18 04:30:18;;;;;;;995.13;915.57;;;8.10;99.90;;;;;;5010042;28;20128;-76
2023/12/18 04:32:44;;;;;;;970.63;896.03;;;8.20;99.90;;;;;;5010238;28;20050;-76
2023/12/18 04:35:10;;;;;;;999.20;918.10;;;8.20;99.90;;;;;;5013467;28;20056;-77
2023/12/18 04:37:36;;;;;;;999.87;905.33;;;8.20;99.90;;;;;;5010127;28;20566;-75
2023/12/18 04:40:03;;;;;;;948.87;876.10;;;8.20;99.90;;;;;;5009930;28;20056;-75
2023/12/18 04:42:29;;;;;;;991.27;908.40;;;8.10;99.90;;;;;;5009402;28;20045;-76
2023/12/18 04:44:55;;;;;;;979.80;904.17;;;8.10;99.90;;;;;;5010373;28;20622;-76
2023/12/18 04:47:21;;;;;;;977.87;903.00;;;8.10;99.90;;;;;;5010652;28;20053;-76
2023/12/18 04:49:47;;;;;;;962.13;888.83;;;8.10;99.90;;;;;;4996479;28;20277;-75
2023/12/18 04:52:13;;;;;;;1017.23;929.60;;;8.10;99.90;;;;;;4993721;28;20034;-76
2023/12/18 04:54:38;;;;;;;962.77;884.20;;;8.00;99.90;;;;;;4993289;28;20553;-76
2023/12/18 04:57:04;;;;;;;963.17;889.33;;;8.00;99.90;;;;;;5009943;28;20050;-76
2023/12/18 04:59:30;;;;;;;972.63;898.67;;;7.90;99.90;;;;;;5014098;28;20042;-76
2023/12/18 05:01:57;;;;;;;992.50;912.10;;;7.90;99.90;;;;;;5019916;28;20404;-75
2023/12/18 05:04:24;;;;;;;945.72;873.85;;;7.80;99.90;;;;;;5017295;28;20042;-76
2023/12/18 05:06:49;;;;;;;965.92;892.35;;;7.80;99.90;;;;;;5014230;28;20129;-76
2023/12/18 05:09:15;;;;;;;953.30;880.80;;;7.70;99.90;;;;;;5017717;28;20128;-76
2023/12/18 05:11:41;;;;;;;966.83;890.80;;;7.60;99.90;;;;;;5015810;28;20080;-76
2023/12/18 05:14:08;;;;;;;1002.70;913.63;;;7.50;99.90;;;;;;5013885;28;20495;-76
2023/12/18 05:16:34;;;;;;;950.85;878.78;;;7.40;99.90;;;;;;4997186;28;20041;-75
2023/12/18 05:19:00;;;;;;;1006.92;924.22;;;7.30;99.90;;;;;;5013805;28;20042;-76
2023/12/18 05:21:25;;;;;;;984.73;903.37;;;7.30;99.90;;;;;;5014677;28;20130;-76
2023/12/18 05:23:51;;;;;;;979.63;900.30;;;7.20;99.90;;;;;;5012829;28;20045;-76
2023/12/18 05:26:17;;;;;;;988.33;907.17;;;7.20;99.90;;;;;;5017227;28;20394;-75
2023/12/18 05:28:43;;;;;;;997.37;914.23;;;7.20;99.90;;;;;;5014469;28;20315;-75
2023/12/18 05:31:09;;;;;;;981.00;901.97;;;7.10;99.90;;;;;;4998614;28;20056;-76
2023/12/18 05:33:35;;;;;;;1006.38;925.13;;;7.10;99.90;;;;;;4997375;28;20078;-76
2023/12/18 05:36:01;;;;;;;981.73;906.03;;;7.10;99.90;;;;;;5013929;28;20121;-75
2023/12/18 05:38:27;;;;;;;1000.40;919.13;;;7.10;99.90;;;;;;5013038;28;20048;-76
2023/12/18 05:40:53;;;;;;;963.50;887.05;;;7.00;99.90;;;;;;5013502;28;20107;-76
2023/12/18 05:43:19;;;;;;;954.90;879.97;;;7.00;99.90;;;;;;5013985;28;20054;-75
2023/12/18 05:45:45;;;;;;;878.97;816.93;;;7.00;99.90;;;;;;5013490;28;20041;-75
2023/12/18 05:48:11;;;;;;;961.23;886.63;;;7.00;99.90;;;;;;4996578;28;20111;-75
2023/12/18 05:50:37;;;;;;;978.83;903.95;;;7.00;99.90;;;;;;4990913;28;20069;-75
2023/12/18 05:53:03;;;;;;;900.67;834.53;;;6.90;99.90;;;;;;5012919;28;20560;-76
2023/12/18 05:55:28;;;;;;;919.30;853.33;;;6.90;99.90;;;;;;4995370;28;20762;-76
2023/12/18 05:57:54;;;;;;;963.43;888.23;;;7.00;99.90;;;;;;4994351;28;20410;-76
2023/12/18 06:00:20;;;;;;;903.50;839.93;;;6.90;99.90;;;;;;4996116;28;20092;-76
2023/12/18 06:02:46;;;;;;;888.07;826.63;;;6.90;99.90;;;;;;5012726;28;20109;-76
2023/12/18 06:05:12;;;;;;;930.80;859.93;;;7.00;99.90;;;;;;5009734;28;20379;-75
2023/12/18 06:07:37;;;;;;;941.80;871.53;;;7.00;99.90;;;;;;4993511;28;20038;-77
2023/12/18 06:10:03;;;;;;;907.73;842.30;;;7.00;99.90;;;;;;5010594;28;20046;-76
2023/12/18 06:12:29;;;;;;;912.80;846.00;;;7.00;99.90;;;;;;5009400;28;20884;-76
2023/12/18 06:14:55;;;;;;;949.47;879.20;;;7.00;99.90;;;;;;5012412;28;20045;-75
2023/12/18 06:17:21;;;;;;;972.13;894.57;;;7.00;99.90;;;;;;5011678;28;20100;-75
2023/12/18 06:19:47;;;;;;;966.85;889.05;;;7.00;99.90;;;;;;5011942;28;20049;-75
2023/12/18 06:22:13;;;;;;;897.90;833.80;;;7.00;99.90;;;;;;5010602;28;20406;-75
2023/12/18 06:24:42;;;;;;;951.43;880.93;;;7.00;99.90;;;;;;5016104;28;20046;-75
2023/12/18 06:27:07;;;;;;;901.25;840.15;;;7.00;99.90;;;;;;4996053;28;21124;-75
2023/12/18 06:29:33;;;;;;;930.90;862.20;;;7.00;99.90;;;;;;5009408;28;20139;-75
2023/12/18 06:31:59;;;;;;;996.40;918.57;;;7.00;99.90;;;;;;5012700;28;20047;-75
2023/12/18 06:34:25;;;;;;;960.03;887.67;;;7.10;99.90;;;;;;5008651;28;20053;-76
2023/12/18 06:36:50;;;;;;;1125.83;991.80;;;7.10;99.90;;;;;;5024916;28;20049;-75
2023/12/18 06:39:16;;;;;;;1005.50;916.83;;;7.10;99.90;;;;;;4995910;28;20045;-75
2023/12/18 06:41:42;;;;;;;1034.87;946.60;;;7.10;99.90;;;;;;4995789;28;20041;-75
2023/12/18 06:44:07;;;;;;;974.00;896.80;;;7.10;99.90;;;;;;5012377;28;20096;-75
2023/12/18 06:46:34;;;;;;;1016.90;928.93;;;7.10;99.90;;;;;;4996072;28;20130;-75
2023/12/18 06:49:01;;;;;;;936.53;866.80;;;7.00;99.90;;;;;;4996918;28;20441;-75
2023/12/18 06:51:27;;;;;;;956.90;884.83;;;7.00;99.90;;;;;;4985588;28;20073;-75
2023/12/18 06:53:52;;;;;;;932.53;864.77;;;7.00;99.90;;;;;;5009114;28;20564;-75
2023/12/18 06:56:18;;;;;;;946.70;876.17;;;7.00;99.90;;;;;;5012076;28;20045;-76
2023/12/18 06:58:44;;;;;;;943.23;873.43;;;7.00;99.90;;;;;;5012473;28;20065;-76
2023/12/18 07:01:10;;;;;;;1008.13;925.60;;;7.00;99.90;;;;;;5010819;28;20504;-76
2023/12/18 07:03:36;;;;;;;986.80;905.57;;;6.90;99.90;;;;;;5011360;28;20030;-76
2023/12/18 07:06:02;;;;;;;952.00;875.07;;;6.90;99.90;;;;;;5016484;28;20121;-76
2023/12/18 07:08:29;;;;;;;946.08;870.08;;;6.90;99.90;;;;;;5011735;28;20069;-76
2023/12/18 07:10:57;;;;;;;911.78;848.00;;;6.90;99.90;;;;;;5012786;28;20053;-76
2023/12/18 07:13:23;;;;;;;942.25;871.92;;;6.90;99.90;;;;;;5011974;28;20041;-76
2023/12/18 07:15:48;;;;;;;946.47;874.70;;;6.80;99.90;;;;;;4995380;28;20540;-77
2023/12/18 07:18:14;;;;;;;993.87;912.70;;;6.80;99.90;;;;;;5012245;28;20042;-76
2023/12/18 07:20:42;;;;;;;922.27;855.27;;;6.80;99.90;;;;;;4992026;28;20355;-76
2023/12/18 07:23:08;;;;;;;931.13;863.72;;;6.80;99.90;;;;;;5011019;28;20545;-76
2023/12/18 07:25:34;;;;;;;955.38;883.67;;;6.80;99.90;;;;;;5011702;28;20503;-77
2023/12/18 07:28:00;;;;;;;1022.53;930.77;;;6.80;99.90;;;;;;4995973;28;20042;-76
2023/12/18 07:30:25;;;;;;;948.30;875.93;;;6.80;99.90;;;;;;4995483;28;20042;-76
2023/12/18 07:32:51;;;;;;;971.07;893.30;;;6.80;99.90;;;;;;5011410;28;20390;-76
2023/12/18 07:35:18;;;;;;;1053.10;955.40;;;6.80;99.90;;;;;;4994093;28;20054;-76
2023/12/18 07:37:44;;;;;;;960.70;886.58;;;6.80;99.90;;;;;;5012129;28;20050;-76
2023/12/18 07:40:10;;;;;;;974.30;897.37;;;6.80;99.90;;;;;;5010684;28;20486;-76
2023/12/18 07:42:36;;;;;;;946.13;875.25;;;6.80;99.90;;;;;;5010562;28;20121;-76
2023/12/18 07:45:02;;;;;;;918.67;853.20;;;6.80;99.90;;;;;;4992099;28;20488;-76
2023/12/18 07:47:28;;;;;;;934.53;863.63;;;6.80;99.90;;;;;;5010937;28;20046;-76
2023/12/18 07:49:54;;;;;;;919.97;855.53;;;6.80;99.90;;;;;;4994744;28;20132;-77
2023/12/18 07:52:19;;;;;;;909.43;843.67;;;6.80;99.90;;;;;;5007616;28;20045;-77
2023/12/18 07:54:45;;;;;;;946.17;874.70;;;6.80;99.90;;;;;;4993066;28;20927;-77
2023/12/18 07:57:11;;;;;;;897.40;834.00;;;6.80;99.90;;;;;;5011110;28;20041;-77
2023/12/18 07:59:39;;;;;;;886.47;824.03;;;6.80;99.90;;;;;;5010636;28;20052;-76
2023/12/18 08:02:09;;;;;;;948.10;876.60;;;6.80;99.90;;;;;;4991893;28;20034;-76
2023/12/18 08:04:35;;;;;;;948.75;876.63;;;6.80;99.90;;;;;;4993871;28;20627;-76
2023/12/18 08:07:02;;;;;;;982.13;895.17;;;6.90;99.90;;;;;;5010648;28;20037;-77
2023/12/18 08:09:27;;;;;;;938.95;870.38;;;6.90;99.90;;;;;;4994985;28;20501;-76
2023/12/18 08:11:53;;;;;;;956.83;886.07;;;6.90;99.90;;;;;;4991615;28;20050;-76
2023/12/18 08:14:19;;;;;;;953.53;883.28;;;6.90;99.90;;;;;;5006161;28;20038;-76
2023/12/18 08:16:45;;;;;;;985.40;903.63;;;6.90;99.90;;;;;;5001467;28;20025;-76
2023/12/18 08:19:11;;;;;;;963.60;887.90;;;6.90;99.90;;;;;;5021546;28;20103;-76
2023/12/18 08:21:37;;;;;;;963.00;889.80;;;7.00;99.90;;;;;;4981367;28;20073;-76
2023/12/18 08:24:02;;;;;;;987.77;899.53;;;7.00;99.90;;;;;;5002570;28;20099;-76
2023/12/18 08:26:28;;;;;;;1053.93;946.67;;;7.00;99.90;;;;;;5007989;28;20537;-76
2023/12/18 08:28:54;;;;;;;1381.57;976.67;;;7.00;99.90;;;;;;5003576;28;20128;-76
2023/12/18 08:31:20;;;;;;;964.97;889.27;;;7.10;99.90;;;;;;5004216;28;20045;-76
2023/12/18 08:33:45;;;;;;;1025.13;927.80;;;7.10;99.90;;;;;;4983352;28;20077;-76
2023/12/18 08:36:11;;;;;;;925.87;857.47;;;7.10;99.90;;;;;;5009549;28;20172;-76
2023/12/18 08:38:37;;;;;;;1031.80;930.57;;;7.10;99.90;;;;;;4999365;28;20050;-76
2023/12/18 08:41:03;;;;;;;985.63;905.30;;;7.10;99.90;;;;;;5005122;28;20116;-76
2023/12/18 08:43:28;;;;;;;917.03;848.72;;;7.10;99.90;;;;;;4984948;28;20034;-77
2023/12/18 08:45:54;;;;;;;989.57;907.00;;;7.10;99.90;;;;;;5009741;28;20120;-77
2023/12/18 08:48:20;;;;;;;951.07;879.13;;;7.20;99.90;;;;;;4989594;28;20048;-76
2023/12/18 08:50:45;;;;;;;896.23;829.30;;;7.20;99.90;;;;;;5000068;28;20121;-76
2023/12/18 08:53:11;;;;;;;902.10;836.50;;;7.20;99.90;;;;;;4986667;28;20406;-76
2023/12/18 08:55:39;;;;;;;873.50;813.17;;;7.20;99.90;;;;;;4999506;28;20042;-77
2023/12/18 08:58:08;;;;;;;941.10;868.38;;;7.20;99.90;;;;;;5002785;28;20034;-76
2023/12/18 09:00:35;;;;;;;984.22;904.72;;;7.20;99.90;;;;;;5006711;28;20487;-77
2023/12/18 09:03:01;;;;;;;1020.08;930.67;;;7.20;99.90;;;;;;5005592;28;20487;-77
2023/12/18 09:05:28;;;;;;;1017.22;924.75;;;7.20;99.90;;;;;;5004779;28;20042;-77
2023/12/18 09:07:54;;;;;;;936.28;868.33;;;7.20;99.90;;;;;;4989550;28;20048;-77
2023/12/18 09:10:22;;;;;;;939.37;870.73;;;7.20;99.90;;;;;;5004659;28;20050;-76
2023/12/18 09:12:52;;;;;;;997.13;916.78;;;7.20;99.90;;;;;;5006593;28;20042;-75
2023/12/18 09:15:18;;;;;;;975.47;897.00;;;7.20;99.90;;;;;;5011224;28;20042;-75
2023/12/18 09:17:43;;;;;;;980.72;900.25;;;7.20;99.90;;;;;;4990978;28;20045;-75
2023/12/18 09:20:10;;;;;;;959.37;883.83;;;7.20;99.90;;;;;;5005419;28;20034;-75
2023/12/18 09:22:36;;;;;;;961.03;888.25;;;7.20;99.90;;;;;;5005393;28;20513;-75
2023/12/18 09:25:03;;;;;;;969.92;894.85;;;7.20;99.90;;;;;;4990972;28;20390;-75
2023/12/18 09:27:28;;;;;;;979.88;897.35;;;7.30;99.90;;;;;;5007040;28;20048;-75
2023/12/18 09:29:54;;;;;;;912.50;845.67;;;7.30;99.90;;;;;;4990721;28;20042;-76
2023/12/18 09:32:20;;;;;;;913.97;846.90;;;7.30;99.90;;;;;;4989474;28;20076;-75
2023/12/18 09:34:46;;;;;;;991.97;909.40;;;7.30;99.90;;;;;;4989680;28;20058;-76
2023/12/18 09:37:12;;;;;;;994.13;911.47;;;7.30;99.90;;;;;;5006482;28;20176;-75
2023/12/18 09:39:40;;;;;;;1007.73;918.40;;;7.30;99.90;;;;;;5004901;28;20562;-75
2023/12/18 09:42:09;;;;;;;964.90;888.80;;;7.30;99.90;;;;;;5004115;28;20030;-75
2023/12/18 09:44:35;;;;;;;968.15;893.20;;;7.40;99.90;;;;;;4990863;28;20034;-75
2023/12/18 09:47:01;;;;;;;977.53;900.85;;;7.40;99.90;;;;;;5007135;28;20046;-76
2023/12/18 09:49:27;;;;;;;944.20;875.28;;;7.40;99.90;;;;;;5006178;28;20383;-75
2023/12/18 09:51:53;;;;;;;1001.53;915.53;;;7.40;99.90;;;;;;5007186;28;20052;-76
2023/12/18 09:54:24;;;;;;;1024.55;940.47;;;7.40;99.90;;;;;;5009875;28;20129;-76
2023/12/18 09:56:51;;;;;;;1036.65;938.33;;;7.40;99.90;;;;;;5001981;28;20042;-76
2023/12/18 09:59:17;;;;;;;1045.78;940.47;;;7.40;99.90;;;;;;4991031;28;20077;-75
2023/12/18 10:01:45;;;;;;;962.42;889.97;;;7.40;99.90;;;;;;5006444;28;20037;-76
2023/12/18 10:04:11;;;;;;;956.08;882.92;;;7.40;99.90;;;;;;5008201;28;20043;-76
2023/12/18 10:06:38;;;;;;;974.10;896.25;;;7.40;99.90;;;;;;5009547;28;20414;-75
2023/12/18 10:09:12;;;;;;;986.50;906.65;;;7.40;99.90;;;;;;4989694;28;20045;-76
2023/12/18 10:11:38;;;;;;;1031.05;943.55;;;7.50;99.90;;;;;;5002782;28;20046;-76
2023/12/18 10:14:04;;;;;;;1006.70;923.60;;;7.50;99.90;;;;;;5002953;28;20068;-75
2023/12/18 10:16:32;;;;;;;1098.60;981.77;;;7.50;99.90;;;;;;5006544;28;20041;-76
2023/12/18 10:18:58;;;;;;;1011.60;930.85;;;7.50;99.90;;;;;;4989122;28;20065;-76
2023/12/18 10:21:24;;;;;;;986.38;908.13;;;7.50;99.90;;;;;;5005833;28;20050;-76
2023/12/18 10:23:53;;;;;;;970.65;896.45;;;7.50;99.90;;;;;;5008981;28;20391;-76
2023/12/18 10:26:20;;;;;;;937.38;867.05;;;7.60;99.90;;;;;;5008306;28;20176;-76
2023/12/18 10:28:45;;;;;;;982.35;906.17;;;7.60;99.90;;;;;;5005048;28;20057;-75
2023/12/18 10:31:11;;;;;;;1002.03;915.77;;;7.60;99.90;;;;;;4992369;28;20164;-75
2023/12/18 10:33:38;;;;;;;1065.95;962.47;;;7.60;99.90;;;;;;4989408;28;20045;-75
2023/12/18 10:36:08;;;;;;;1014.88;926.92;;;7.70;99.90;;;;;;5004298;28;20525;-75
2023/12/18 10:38:36;;;;;;;987.00;906.85;;;7.70;99.90;;;;;;5011758;28;20756;-75
2023/12/18 10:41:04;;;;;;;1049.35;952.97;;;7.70;99.90;;;;;;5013088;28;20061;-75
2023/12/18 10:43:32;;;;;;;1037.03;946.08;;;7.70;99.90;;;;;;5012248;28;20088;-75
2023/12/18 10:45:59;;;;;;;988.33;907.40;;;7.80;99.90;;;;;;5012667;28;20050;-75
2023/12/18 10:48:26;;;;;;;978.00;897.47;;;7.80;99.90;;;;;;5009659;28;20050;-76
2023/12/18 10:50:55;;;;;;;1029.95;937.05;;;7.80;99.90;;;;;;4996708;28;20041;-76
2023/12/18 10:53:22;;;;;;;1011.80;927.40;;;7.80;99.90;;;;;;4994537;28;20053;-76
2023/12/18 10:55:49;;;;;;;1024.35;941.35;;;7.90;99.90;;;;;;5011435;28;20058;-76
2023/12/18 10:58:17;;;;;;;949.33;879.45;;;7.80;99.90;;;;;;5011838;28;20101;-76
2023/12/18 11:00:46;;;;;;;1213.82;997.28;;;7.90;99.90;;;;;;5009401;28;20038;-76
2023/12/18 11:03:14;;;;;;;1025.35;938.65;;;7.80;99.90;;;;;;4995352;28;20084;-76
2023/12/18 11:05:41;;;;;;;1207.00;965.15;;;7.80;99.90;;;;;;5012484;28;20117;-76
2023/12/18 11:08:07;;;;;;;1007.90;921.75;;;7.90;99.90;;;;;;5017244;28;20044;-76
2023/12/18 11:10:33;;;;;;;1043.65;948.10;;;7.90;99.90;;;;;;4995674;28;20075;-76
2023/12/18 11:13:23;;;;;;;1010.55;925.10;;;7.90;99.90;;;;;;5010567;28;20451;-76
2023/12/18 11:16:18;;;;;;;1038.57;941.63;;;7.90;99.90;;;;;;4995513;28;20292;-75
2023/12/18 11:19:02;;;;;;;1036.80;944.25;;;7.90;99.90;;;;;;4994929;28;20038;-76
2023/12/18 11:21:28;;;;;;;1023.28;932.20;;;7.90;99.90;;;;;;5006378;28;20037;-75
2023/12/18 11:23:54;;;;;;;967.13;888.17;;;7.90;99.90;;;;;;5011105;28;21004;-75
2023/12/18 11:26:20;;;;;;;991.30;909.53;;;7.90;99.90;;;;;;5012249;28;20117;-75
2023/12/18 11:28:50;;;;;;;1070.90;965.80;;;7.90;99.90;;;;;;4995330;28;20054;-75
2023/12/18 11:31:20;;;;;;;1000.17;914.67;;;7.90;99.90;;;;;;4995171;28;20288;-75
2023/12/18 11:34:02;;;;;;;955.72;879.17;;;7.90;99.90;;;;;;5010960;28;20058;-76
2023/12/18 11:36:28;;;;;;;954.35;878.13;;;7.90;99.90;;;;;;4987761;28;20498;-75
2023/12/18 11:38:55;;;;;;;981.20;901.20;;;7.90;99.90;;;;;;5010710;28;20044;-74
2023/12/18 11:41:39;;;;;;;947.43;873.40;;;7.90;99.90;;;;;;5012329;28;20037;-76
2023/12/18 11:44:11;;;;;;;978.28;900.45;;;7.90;99.90;;;;;;5009018;28;20281;-75
2023/12/18 11:46:38;;;;;;;1002.20;920.83;;;7.90;99.90;;;;;;4994560;28;20067;-75
2023/12/18 11:49:06;;;;;;;1025.00;937.07;;;7.90;99.90;;;;;;4995329;28;20388;-75
2023/12/18 11:51:32;;;;;;;957.57;882.10;;;8.00;99.90;;;;;;5005267;28;20334;-75
2023/12/18 11:54:00;;;;;;;1039.30;943.17;;;8.00;99.90;;;;;;4992459;28;20844;-75
2023/12/18 11:56:41;;;;;;;1057.13;949.13;;;8.00;99.90;;;;;;4994171;28;20045;-75
2023/12/18 11:59:08;;;;;;;990.20;910.05;;;8.00;99.90;;;;;;4990596;28;20753;-75
2023/12/18 12:01:34;;;;;;;984.93;900.63;;;8.00;99.90;;;;;;5010728;28;20187;-75
2023/12/18 12:04:00;;;;;;;1043.67;945.30;;;8.00;99.90;;;;;;5010602;28;20361;-76
2023/12/18 12:06:26;;;;;;;1047.33;955.07;;;8.00;99.90;;;;;;5010409;28;20844;-76
2023/12/18 12:08:52;;;;;;;1002.33;917.50;;;8.00;99.90;;;;;;5010959;28;20157;-76